Sabine — UALB — position and weather

sailwx.info

Track history (hours):
 
Tides and Currents Weather Stations Pressure Air Temp Water Temp Dewpoint Dewpoint Depression Visibility Wind Speed Wind Dir Waves Ship Positions

Sabine

Last reported at 2018-Jun-15 21:42 UTC. Time now 2018-Jun-19 01:15 UTC.
Position N 45°01' E 036°29'.

Length 114 m; draft 4 m.

Type: Cargo ship. MMSI: 273320100.

Date/timePositionNaut miles runAvg speedWind from/ knotsBaromVisibWave heightAir tempDewpointWater temp
2018-Jun-15 21:42N 45°01' E 036°29'2 7.7
2018-Jun-15 21:30N 45°02' E 036°29'5 7.4
2018-Jun-15 20:46N 45°08' E 036°29'2 7.5
2018-Jun-15 20:30N 45°10' E 036°28'4 7.3
2018-Jun-15 20:00N 45°13' E 036°28'4 7.1
2018-Jun-15 19:30N 45°17' E 036°29'4 6.0
2018-Jun-15 18:52N 45°19' E 036°33'2 6.9
2018-Jun-15 18:30N 45°20' E 036°36'3 6.5
2018-Jun-15 18:00N 45°22' E 036°40'7 0.5
2018-Jun-15 05:11N 45°28' E 036°36'0 0.0
2018-Jun-15 05:00N 45°28' E 036°36'0 0.0
2018-Jun-15 04:23N 45°28' E 036°36'0 0.0
2018-Jun-15 03:53N 45°28' E 036°36'0 0.0
2018-Jun-15 03:28N 45°28' E 036°36'0 0.0
2018-Jun-15 02:39N 45°28' E 036°36'0 0.0
2018-Jun-15 02:23N 45°28' E 036°36'0 0.0
2018-Jun-15 01:57N 45°28' E 036°36'1 0.7
2018-Jun-15 00:26N 45°29' E 036°38'1 2.6
2018-Jun-14 23:54N 45°29' E 036°40'  
2018-Jun-07 03:41N 45°25' E 036°43'2 6.9
2018-Jun-07 03:25N 45°23' E 036°41'3 6.8
2018-Jun-07 03:00N 45°21' E 036°38'8 6.7
2018-Jun-07 01:45N 45°16' E 036°29'2 6.9
2018-Jun-07 01:26N 45°14' E 036°28'5 3.9
2018-Jun-07 00:06N 45°10' E 036°32'1 5.9
2018-Jun-06 23:59N 45°09' E 036°33'7 0.4
2018-Jun-06 07:46N 45°15' E 036°28'2 6.4
2018-Jun-06 07:27N 45°17' E 036°28'2 5.2
2018-Jun-06 06:59N 45°19' E 036°31'3 6.4
2018-Jun-06 06:30N 45°20' E 036°35'3 6.1
2018-Jun-06 06:00N 45°21' E 036°39'3 6.6
2018-Jun-06 05:30N 45°24' E 036°40'3 5.1
2018-Jun-06 05:00N 45°27' E 036°40'2 3.2
2018-Jun-06 04:29N 45°28' E 036°38'0 0.1
2018-Jun-06 03:58N 45°28' E 036°38'0 0.0
2018-Jun-06 03:28N 45°28' E 036°38'0 0.0
2018-Jun-06 02:56N 45°28' E 036°38'0 0.0
2018-Jun-06 02:29N 45°28' E 036°38'0 0.0
2018-Jun-06 02:01N 45°28' E 036°38'0 0.0
2018-Jun-06 01:29N 45°28' E 036°38'0 0.0
2018-Jun-06 00:42N 45°28' E 036°38'0 0.0
2018-Jun-06 00:26N 45°28' E 036°38'0 0.0
2018-Jun-05 23:55N 45°28' E 036°38'0 0.0
2018-Jun-05 23:30N 45°28' E 036°38'0 0.0
2018-Jun-05 22:59N 45°28' E 036°38'0 0.0
2018-Jun-05 22:27N 45°28' E 036°38'0 0.0
2018-Jun-05 21:54N 45°28' E 036°38'  
Track history (hours):
 
Tides and Currents Weather Stations Pressure Air Temp Water Temp Dewpoint Dewpoint Depression Visibility Wind Speed Wind Dir Waves Ship Positions

Sabine

Last reported at 2018-Jun-15 21:42 UTC. Time now 2018-Jun-19 01:15 UTC.
Position N 45°01' E 036°29'.

Length 114 m; draft 4 m.

Type: Cargo ship. MMSI: 273320100.

Date/timePositionNaut miles runAvg speedWind from/ knotsBaromVisibWave heightAir tempDewpointWater temp
2018-Jun-15 21:42N 45°01' E 036°29'2 7.7
2018-Jun-15 21:30N 45°02' E 036°29'5 7.4
2018-Jun-15 20:46N 45°08' E 036°29'2 7.5
2018-Jun-15 20:30N 45°10' E 036°28'4 7.3
2018-Jun-15 20:00N 45°13' E 036°28'4 7.1
2018-Jun-15 19:30N 45°17' E 036°29'4 6.0
2018-Jun-15 18:52N 45°19' E 036°33'2 6.9
2018-Jun-15 18:30N 45°20' E 036°36'3 6.5
2018-Jun-15 18:00N 45°22' E 036°40'7 0.5
2018-Jun-15 05:11N 45°28' E 036°36'0 0.0
2018-Jun-15 05:00N 45°28' E 036°36'0 0.0
2018-Jun-15 04:23N 45°28' E 036°36'0 0.0
2018-Jun-15 03:53N 45°28' E 036°36'0 0.0
2018-Jun-15 03:28N 45°28' E 036°36'0 0.0
2018-Jun-15 02:39N 45°28' E 036°36'0 0.0
2018-Jun-15 02:23N 45°28' E 036°36'0 0.0
2018-Jun-15 01:57N 45°28' E 036°36'1 0.7
2018-Jun-15 00:26N 45°29' E 036°38'1 2.6
2018-Jun-14 23:54N 45°29' E 036°40'  
2018-Jun-07 03:41N 45°25' E 036°43'2 6.9
2018-Jun-07 03:25N 45°23' E 036°41'3 6.8
2018-Jun-07 03:00N 45°21' E 036°38'8 6.7
2018-Jun-07 01:45N 45°16' E 036°29'2 6.9
2018-Jun-07 01:26N 45°14' E 036°28'5 3.9
2018-Jun-07 00:06N 45°10' E 036°32'1 5.9
2018-Jun-06 23:59N 45°09' E 036°33'7 0.4
2018-Jun-06 07:46N 45°15' E 036°28'2 6.4
2018-Jun-06 07:27N 45°17' E 036°28'2 5.2
2018-Jun-06 06:59N 45°19' E 036°31'3 6.4
2018-Jun-06 06:30N 45°20' E 036°35'3 6.1
2018-Jun-06 06:00N 45°21' E 036°39'3 6.6
2018-Jun-06 05:30N 45°24' E 036°40'3 5.1
2018-Jun-06 05:00N 45°27' E 036°40'2 3.2
2018-Jun-06 04:29N 45°28' E 036°38'0 0.1
2018-Jun-06 03:58N 45°28' E 036°38'0 0.0
2018-Jun-06 03:28N 45°28' E 036°38'0 0.0
2018-Jun-06 02:56N 45°28' E 036°38'0 0.0
2018-Jun-06 02:29N 45°28' E 036°38'0 0.0
2018-Jun-06 02:01N 45°28' E 036°38'0 0.0
2018-Jun-06 01:29N 45°28' E 036°38'0 0.0
2018-Jun-06 00:42N 45°28' E 036°38'0 0.0
2018-Jun-06 00:26N 45°28' E 036°38'0 0.0
2018-Jun-05 23:55N 45°28' E 036°38'0 0.0
2018-Jun-05 23:30N 45°28' E 036°38'0 0.0
2018-Jun-05 22:59N 45°28' E 036°38'0 0.0
2018-Jun-05 22:27N 45°28' E 036°38'0 0.0
2018-Jun-05 21:54N 45°28' E 036°38'  

Dump ship's entire track history